createdAt,value
2017-03-31T00:00:47.550Z,0
2017-03-31T00:01:47.584Z,0
2017-03-31T00:02:47.623Z,0
2017-03-31T00:03:47.658Z,0
2017-03-31T00:04:48.001Z,0
2017-03-31T00:05:48.049Z,0
2017-03-31T00:06:47.776Z,0
2017-03-31T00:07:48.111Z,0
2017-03-31T00:08:47.850Z,0
2017-03-31T00:09:47.879Z,0
2017-03-31T00:10:47.916Z,0
2017-03-31T00:11:47.981Z,0
2017-03-31T00:12:47.991Z,0
2017-03-31T00:13:48.033Z,0
2017-03-31T00:14:48.072Z,0
2017-03-31T00:15:48.106Z,0
2017-03-31T00:16:48.137Z,0
2017-03-31T00:17:48.481Z,0
2017-03-31T00:18:48.211Z,0
2017-03-31T00:19:48.568Z,0
2017-03-31T00:20:48.895Z,0
2017-03-31T00:21:48.644Z,0
2017-03-31T00:22:48.358Z,0
2017-03-31T00:23:48.767Z,0
2017-03-31T00:24:48.735Z,0
2017-03-31T00:25:48.475Z,0
2017-03-31T00:26:48.815Z,0
2017-03-31T00:27:48.544Z,0
2017-03-31T00:28:48.586Z,0
2017-03-31T00:29:48.620Z,0
2017-03-31T00:30:48.669Z,0
2017-03-31T00:31:48.695Z,0
2017-03-31T00:32:49.032Z,0
2017-03-31T00:33:48.764Z,0
2017-03-31T00:34:49.118Z,0
2017-03-31T00:35:48.849Z,0
2017-03-31T00:36:49.483Z,0
2017-03-31T00:37:48.908Z,0
2017-03-31T00:38:49.252Z,0
2017-03-31T00:39:48.986Z,0
2017-03-31T00:40:49.026Z,0
2017-03-31T00:41:49.064Z,0
2017-03-31T00:42:49.126Z,0
2017-03-31T00:43:49.443Z,0
2017-03-31T00:44:49.481Z,0
2017-03-31T00:45:49.817Z,0
2017-03-31T00:46:49.557Z,0
2017-03-31T00:47:49.284Z,0
2017-03-31T00:48:49.327Z,0
2017-03-31T00:49:49.352Z,0
2017-03-31T00:50:49.399Z,0
2017-03-31T00:51:50.032Z,0
2017-03-31T00:52:49.782Z,0
2017-03-31T00:53:49.500Z,0
2017-03-31T00:54:49.541Z,0
2017-03-31T00:55:49.583Z,0
2017-03-31T00:56:49.616Z,0
2017-03-31T00:57:49.659Z,0
2017-03-31T00:58:49.690Z,0
2017-03-31T00:59:49.726Z,0
2017-03-31T01:00:49.771Z,0
2017-03-31T01:01:49.803Z,0
2017-03-31T01:02:49.830Z,0
2017-03-31T01:03:49.864Z,0
2017-03-31T01:04:50.208Z,0
2017-03-31T01:05:50.248Z,0
2017-03-31T01:06:50.205Z,0
2017-03-31T01:07:50.016Z,0
2017-03-31T01:08:50.051Z,0
2017-03-31T01:09:50.390Z,0
2017-03-31T01:10:50.428Z,0
2017-03-31T01:11:50.168Z,0
2017-03-31T01:12:50.206Z,0
2017-03-31T01:13:50.242Z,0
2017-03-31T01:14:50.276Z,0
2017-03-31T01:15:50.314Z,0
2017-03-31T01:16:50.650Z,0
2017-03-31T01:17:50.380Z,0
2017-03-31T01:18:50.428Z,0
2017-03-31T01:19:50.454Z,0
2017-03-31T01:20:50.799Z,0
2017-03-31T01:21:51.129Z,0
2017-03-31T01:22:50.565Z,0
2017-03-31T01:23:50.605Z,0
2017-03-31T01:24:50.636Z,0
2017-03-31T01:25:50.679Z,0
2017-03-31T01:26:50.716Z,0
2017-03-31T01:27:50.753Z,0
2017-03-31T01:28:50.784Z,0
2017-03-31T01:29:50.903Z,0
2017-03-31T01:30:50.855Z,0
2017-03-31T01:31:51.208Z,0
2017-03-31T01:32:50.925Z,0
2017-03-31T01:33:50.979Z,0
2017-03-31T01:34:50.998Z,0
2017-03-31T01:35:51.044Z,0
2017-03-31T01:36:51.374Z,0
2017-03-31T01:37:51.419Z,0
2017-03-31T01:38:51.148Z,0
2017-03-31T01:39:51.495Z,0
2017-03-31T01:40:51.257Z,0
2017-03-31T01:41:51.257Z,0
2017-03-31T01:42:51.349Z,0
2017-03-31T01:43:51.331Z,0
2017-03-31T01:44:51.669Z,0
2017-03-31T01:45:51.417Z,0
2017-03-31T01:46:52.047Z,0
2017-03-31T01:47:51.479Z,0
2017-03-31T01:48:51.509Z,0
2017-03-31T01:49:51.556Z,0
2017-03-31T01:50:51.585Z,0
2017-03-31T01:51:52.237Z,0
2017-03-31T01:52:51.659Z,0
2017-03-31T01:53:51.731Z,0
2017-03-31T01:54:52.040Z,0
2017-03-31T01:55:52.067Z,0
2017-03-31T01:56:51.809Z,0
2017-03-31T01:57:52.449Z,0
2017-03-31T01:58:52.185Z,0
2017-03-31T01:59:52.227Z,0
2017-03-31T02:00:51.957Z,0
2017-03-31T02:01:52.296Z,0
2017-03-31T02:02:52.332Z,0
2017-03-31T02:03:52.669Z,0
2017-03-31T02:04:53.000Z,0
2017-03-31T02:05:52.445Z,0
2017-03-31T02:06:52.782Z,0
2017-03-31T02:07:52.201Z,0
2017-03-31T02:08:52.245Z,0
2017-03-31T02:09:52.277Z,0
2017-03-31T02:10:52.317Z,0
2017-03-31T02:11:52.655Z,0
2017-03-31T02:12:52.691Z,0
2017-03-31T02:13:52.723Z,0
2017-03-31T02:14:52.465Z,0
2017-03-31T02:15:52.800Z,0
2017-03-31T02:16:52.536Z,0
2017-03-31T02:17:52.571Z,0
2017-03-31T02:18:52.912Z,0
2017-03-31T02:19:52.647Z,0
2017-03-31T02:20:52.687Z,0
2017-03-31T02:21:52.723Z,0
2017-03-31T02:22:52.747Z,0
2017-03-31T02:23:53.089Z,0
2017-03-31T02:24:52.834Z,0
2017-03-31T02:25:52.866Z,0
2017-03-31T02:26:52.895Z,0
2017-03-31T02:27:53.236Z,0
2017-03-31T02:28:52.967Z,0
2017-03-31T02:29:53.004Z,0
2017-03-31T02:30:53.051Z,0
2017-03-31T02:31:53.381Z,0
2017-03-31T02:32:53.726Z,0
2017-03-31T02:33:53.155Z,0
2017-03-31T02:34:53.190Z,0
2017-03-31T02:35:53.222Z,0
2017-03-31T02:36:53.262Z,0
2017-03-31T02:37:53.597Z,0
2017-03-31T02:38:53.329Z,0
2017-03-31T02:39:53.378Z,0
2017-03-31T02:40:53.725Z,0
2017-03-31T02:41:53.473Z,0
2017-03-31T02:42:53.470Z,0
2017-03-31T02:43:53.521Z,0
2017-03-31T02:44:53.851Z,0
2017-03-31T02:45:53.886Z,0
2017-03-31T02:46:53.620Z,0
2017-03-31T02:47:53.694Z,0
2017-03-31T02:48:53.702Z,0
2017-03-31T02:49:53.724Z,0
2017-03-31T02:50:53.767Z,0
2017-03-31T02:51:54.112Z,0
2017-03-31T02:52:53.839Z,0
2017-03-31T02:53:53.880Z,0
2017-03-31T02:54:53.910Z,0
2017-03-31T02:55:53.951Z,0
2017-03-31T02:56:54.282Z,0
2017-03-31T02:57:54.023Z,0
2017-03-31T02:58:54.062Z,0
2017-03-31T02:59:54.092Z,0
2017-03-31T03:00:54.129Z,0
2017-03-31T03:01:54.464Z,0
2017-03-31T03:02:54.246Z,0
2017-03-31T03:03:54.236Z,0
2017-03-31T03:04:54.267Z,0
2017-03-31T03:05:54.608Z,0
2017-03-31T03:06:54.376Z,0
2017-03-31T03:07:54.390Z,0
2017-03-31T03:08:54.445Z,0
2017-03-31T03:09:54.455Z,0
2017-03-31T03:10:54.493Z,0
2017-03-31T03:11:54.528Z,0
2017-03-31T03:12:54.864Z,0
2017-03-31T03:13:54.593Z,0
2017-03-31T03:14:54.630Z,0
2017-03-31T03:15:54.683Z,0
2017-03-31T03:16:54.703Z,0
2017-03-31T03:17:54.744Z,0
2017-03-31T03:18:54.773Z,0
2017-03-31T03:19:54.823Z,0
2017-03-31T03:20:54.887Z,0
2017-03-31T03:21:55.191Z,0
2017-03-31T03:22:54.923Z,0
2017-03-31T03:23:55.263Z,0
2017-03-31T03:24:54.990Z,0
2017-03-31T03:25:55.032Z,0
2017-03-31T03:26:55.067Z,0
2017-03-31T03:27:55.101Z,0
2017-03-31T03:28:55.132Z,0
2017-03-31T03:29:55.176Z,0
2017-03-31T03:30:55.514Z,0
2017-03-31T03:31:55.249Z,0
2017-03-31T03:32:55.276Z,0
2017-03-31T03:33:55.313Z,0
2017-03-31T03:34:55.653Z,0
2017-03-31T03:35:55.690Z,0
2017-03-31T03:36:55.725Z,0
2017-03-31T03:37:55.767Z,0
2017-03-31T03:38:55.494Z,0
2017-03-31T03:39:55.543Z,0
2017-03-31T03:40:55.884Z,0
2017-03-31T03:41:55.606Z,0
2017-03-31T03:42:55.638Z,0
2017-03-31T03:43:55.676Z,0
2017-03-31T03:44:55.718Z,0
2017-03-31T03:45:55.747Z,0
2017-03-31T03:46:55.797Z,0
2017-03-31T03:47:55.822Z,0
2017-03-31T03:48:55.854Z,0
2017-03-31T03:49:55.924Z,0
2017-03-31T03:50:55.928Z,0
2017-03-31T03:51:56.272Z,0
2017-03-31T03:52:56.000Z,0
2017-03-31T03:53:56.044Z,0
2017-03-31T03:54:56.070Z,0
2017-03-31T03:55:56.411Z,0
2017-03-31T03:56:56.450Z,0
2017-03-31T03:57:56.189Z,0
2017-03-31T03:58:56.216Z,0
2017-03-31T03:59:56.558Z,0
2017-03-31T04:00:56.892Z,0
2017-03-31T04:01:56.323Z,0
2017-03-31T04:02:56.671Z,0
2017-03-31T04:03:56.702Z,0
2017-03-31T04:04:56.437Z,0
2017-03-31T04:05:56.765Z,0
2017-03-31T04:06:56.810Z,0
2017-03-31T04:07:56.841Z,0
2017-03-31T04:08:56.583Z,0
2017-03-31T04:09:56.667Z,0
2017-03-31T04:10:56.655Z,0
2017-03-31T04:11:56.998Z,0
2017-03-31T04:12:56.723Z,0
2017-03-31T04:13:57.057Z,0
2017-03-31T04:14:56.796Z,0
2017-03-31T04:15:56.838Z,0
2017-03-31T04:16:57.175Z,0
2017-03-31T04:17:57.195Z,0
2017-03-31T04:18:57.553Z,0
2017-03-31T04:19:56.967Z,0
2017-03-31T04:20:57.004Z,0
2017-03-31T04:21:57.957Z,0
2017-03-31T04:22:57.390Z,0
2017-03-31T04:23:57.112Z,0
2017-03-31T04:24:57.150Z,0
2017-03-31T04:25:57.186Z,0
2017-03-31T04:26:57.525Z,0
2017-03-31T04:27:57.261Z,0
2017-03-31T04:28:57.303Z,0
2017-03-31T04:29:57.637Z,0
2017-03-31T04:30:57.661Z,0
2017-03-31T04:31:57.708Z,0
2017-03-31T04:32:57.439Z,0
2017-03-31T04:33:58.075Z,0
2017-03-31T04:34:57.507Z,0
2017-03-31T04:35:57.548Z,5
2017-03-31T04:36:57.897Z,5
2017-03-31T04:37:57.920Z,5
2017-03-31T04:38:57.680Z,5
2017-03-31T04:39:57.996Z,5
2017-03-31T04:40:58.029Z,5
2017-03-31T04:41:57.750Z,5
2017-03-31T04:42:57.841Z,5
2017-03-31T04:43:57.827Z,5
2017-03-31T04:44:57.870Z,5
2017-03-31T04:45:58.209Z,10
2017-03-31T04:46:57.939Z,10
2017-03-31T04:47:58.274Z,10
2017-03-31T04:48:58.006Z,10
2017-03-31T04:49:58.661Z,15
2017-03-31T04:50:58.397Z,15
2017-03-31T04:51:58.115Z,15
2017-03-31T04:52:58.459Z,15
2017-03-31T04:53:58.184Z,20
2017-03-31T04:54:58.538Z,20
2017-03-31T04:55:58.259Z,20
2017-03-31T04:56:58.292Z,25
2017-03-31T04:57:58.639Z,25
2017-03-31T04:58:58.678Z,25
2017-03-31T04:59:58.406Z,30
2017-03-31T05:00:59.052Z,30
2017-03-31T05:01:58.510Z,30
2017-03-31T05:02:58.541Z,35
2017-03-31T05:03:58.558Z,35
2017-03-31T05:04:58.578Z,35
2017-03-31T05:05:58.924Z,40
2017-03-31T05:06:58.967Z,40
2017-03-31T05:07:58.719Z,40
2017-03-31T05:08:58.732Z,45
2017-03-31T05:09:58.814Z,45
2017-03-31T05:10:58.803Z,45
2017-03-31T05:11:58.831Z,50
2017-03-31T05:12:58.868Z,50
2017-03-31T05:13:58.911Z,55
2017-03-31T05:14:58.940Z,55
2017-03-31T05:15:58.987Z,55
2017-03-31T05:16:59.322Z,60
2017-03-31T05:17:59.052Z,60
2017-03-31T05:18:59.394Z,60
2017-03-31T05:19:59.128Z,65
2017-03-31T05:20:59.173Z,65
2017-03-31T05:21:59.507Z,65
2017-03-31T05:22:59.232Z,65
2017-03-31T05:23:59.276Z,70
2017-03-31T05:24:59.307Z,70
2017-03-31T05:25:59.350Z,70
2017-03-31T05:26:59.684Z,75
2017-03-31T05:27:59.409Z,75
2017-03-31T05:28:59.452Z,80
2017-03-31T05:29:59.783Z,80
2017-03-31T05:30:59.528Z,85
2017-03-31T05:32:00.193Z,85
2017-03-31T05:32:59.597Z,90
2017-03-31T05:33:59.934Z,95
2017-03-31T05:34:59.665Z,95
2017-03-31T05:35:59.704Z,100
2017-03-31T05:37:00.342Z,100
2017-03-31T05:37:59.775Z,105
2017-03-31T05:38:59.809Z,105
2017-03-31T05:39:59.846Z,110
2017-03-31T05:40:59.891Z,110
2017-03-31T05:41:59.918Z,115
2017-03-31T05:42:59.971Z,115
2017-03-31T05:43:59.994Z,120
2017-03-31T05:45:00.333Z,120
2017-03-31T05:46:00.080Z,125
2017-03-31T05:47:00.403Z,130
2017-03-31T05:48:00.260Z,130
2017-03-31T05:49:00.185Z,130
2017-03-31T05:50:00.525Z,135
2017-03-31T05:51:00.565Z,140
2017-03-31T05:52:00.603Z,150
2017-03-31T05:53:00.378Z,165
2017-03-31T05:54:00.369Z,225
2017-03-31T05:55:00.777Z,255
2017-03-31T05:56:00.448Z,275
2017-03-31T05:57:00.774Z,315
2017-03-31T05:58:00.513Z,310
2017-03-31T05:59:00.914Z,305
2017-03-31T06:00:00.894Z,340
2017-03-31T06:01:00.931Z,385
2017-03-31T06:02:00.966Z,410
2017-03-31T06:03:01.003Z,420
2017-03-31T06:04:01.039Z,430
2017-03-31T06:05:00.775Z,435
2017-03-31T06:06:00.816Z,445
2017-03-31T06:07:00.852Z,450
2017-03-31T06:08:00.907Z,460
2017-03-31T06:09:00.937Z,470
2017-03-31T06:10:01.277Z,485
2017-03-31T06:11:01.340Z,500
2017-03-31T06:12:01.090Z,510
2017-03-31T06:13:01.396Z,515
2017-03-31T06:14:01.436Z,525
2017-03-31T06:15:01.519Z,535
2017-03-31T06:16:01.871Z,545
2017-03-31T06:17:01.566Z,565
2017-03-31T06:18:01.606Z,570
2017-03-31T06:19:01.638Z,570
2017-03-31T06:20:01.713Z,575
2017-03-31T06:21:01.431Z,570
2017-03-31T06:22:01.472Z,570
2017-03-31T06:23:01.520Z,550
2017-03-31T06:24:01.570Z,535
2017-03-31T06:25:01.618Z,555
2017-03-31T06:26:01.635Z,565
2017-03-31T06:27:01.691Z,575
2017-03-31T06:28:01.721Z,585
2017-03-31T06:29:01.772Z,655
2017-03-31T06:30:02.125Z,665
2017-03-31T06:31:02.505Z,680
2017-03-31T06:32:01.894Z,705
2017-03-31T06:33:02.540Z,705
2017-03-31T06:34:01.994Z,720
2017-03-31T06:35:02.028Z,725
2017-03-31T06:36:02.071Z,725
2017-03-31T06:37:02.718Z,715
2017-03-31T06:38:02.770Z,705
2017-03-31T06:39:02.214Z,705
2017-03-31T06:40:02.255Z,755
2017-03-31T06:41:02.292Z,785
2017-03-31T06:42:02.337Z,805
2017-03-31T06:43:02.691Z,815
2017-03-31T06:44:02.740Z,835
2017-03-31T06:45:03.096Z,855
2017-03-31T06:46:03.134Z,855
2017-03-31T06:47:02.938Z,835
2017-03-31T06:48:02.921Z,805
2017-03-31T06:49:02.659Z,865
2017-03-31T06:50:02.698Z,845
2017-03-31T06:51:03.047Z,835
2017-03-31T06:52:02.815Z,840
2017-03-31T06:53:02.840Z,835
2017-03-31T06:54:03.188Z,850
2017-03-31T06:55:02.926Z,855
2017-03-31T06:56:02.978Z,840
2017-03-31T06:57:03.025Z,820
2017-03-31T06:58:03.073Z,835
2017-03-31T06:59:03.425Z,830
2017-03-31T07:00:03.169Z,825
2017-03-31T07:01:03.210Z,820
2017-03-31T07:02:03.567Z,810
2017-03-31T07:03:03.298Z,815
2017-03-31T07:04:03.677Z,835
2017-03-31T07:05:03.508Z,850
2017-03-31T07:06:03.796Z,900
2017-03-31T07:07:05.423Z,925
2017-03-31T07:08:03.571Z,950
2017-03-31T07:09:03.585Z,975
2017-03-31T07:10:03.633Z,990
2017-03-31T07:11:03.677Z,980
2017-03-31T07:12:03.748Z,985
2017-03-31T07:13:03.778Z,980
2017-03-31T07:14:03.838Z,970
2017-03-31T07:15:04.516Z,985
2017-03-31T07:16:04.275Z,975
2017-03-31T07:17:03.970Z,975
2017-03-31T07:18:04.020Z,995
2017-03-31T07:19:04.069Z,1000
2017-03-31T07:20:04.117Z,1010
2017-03-31T07:21:04.473Z,1030
2017-03-31T07:22:04.212Z,1045
2017-03-31T07:23:04.272Z,1085
2017-03-31T07:24:04.312Z,1095
2017-03-31T07:25:04.366Z,1115
2017-03-31T07:26:04.737Z,1130
2017-03-31T07:27:04.782Z,1120
2017-03-31T07:28:04.821Z,1115
2017-03-31T07:29:04.868Z,1110
2017-03-31T07:30:04.606Z,1110
2017-03-31T07:31:08.206Z,1125
2017-03-31T07:32:04.699Z,1125
2017-03-31T07:33:04.784Z,1125
2017-03-31T07:34:04.833Z,1140
2017-03-31T07:35:05.151Z,1170
2017-03-31T07:36:05.200Z,1180
2017-03-31T07:37:04.948Z,1195
2017-03-31T07:38:05.004Z,1200
2017-03-31T07:39:05.053Z,1215
2017-03-31T07:40:05.105Z,1260
2017-03-31T07:41:05.172Z,1270
2017-03-31T07:42:05.204Z,1280
2017-03-31T07:43:05.563Z,1325
2017-03-31T07:44:05.616Z,1330
2017-03-31T07:45:05.660Z,1365
2017-03-31T07:46:05.709Z,1365
2017-03-31T07:47:05.453Z,1350
2017-03-31T07:48:05.506Z,1395
2017-03-31T07:49:05.551Z,1405
2017-03-31T07:50:05.602Z,1410
2017-03-31T07:51:05.653Z,1400
2017-03-31T07:52:06.008Z,1385
2017-03-31T07:53:06.055Z,1380
2017-03-31T07:54:05.810Z,1385
2017-03-31T07:55:05.868Z,1400
2017-03-31T07:56:05.909Z,1400
2017-03-31T07:57:05.966Z,1420
2017-03-31T07:58:06.017Z,1450
2017-03-31T07:59:06.401Z,1465
2017-03-31T08:00:06.412Z,1465
2017-03-31T08:01:06.471Z,1460
2017-03-31T08:02:06.514Z,1475
2017-03-31T08:03:06.562Z,1490
2017-03-31T08:04:06.315Z,1510
2017-03-31T08:05:06.676Z,1525
2017-03-31T08:06:06.717Z,1515
2017-03-31T08:07:06.473Z,1540
2017-03-31T08:08:06.533Z,1550
2017-03-31T08:09:06.574Z,1555
2017-03-31T08:10:06.646Z,1580
2017-03-31T08:11:06.676Z,1590
2017-03-31T08:12:06.726Z,1600
2017-03-31T08:13:06.776Z,1615
2017-03-31T08:14:06.872Z,1640
2017-03-31T08:15:07.209Z,1640
2017-03-31T08:16:06.945Z,1635
2017-03-31T08:17:07.290Z,1625
2017-03-31T08:18:07.037Z,1605
2017-03-31T08:19:07.103Z,1595
2017-03-31T08:20:07.447Z,1590
2017-03-31T08:21:07.199Z,1595
2017-03-31T08:22:07.250Z,1595
2017-03-31T08:23:07.295Z,1620
2017-03-31T08:24:07.357Z,1605
2017-03-31T08:25:07.721Z,1595
2017-03-31T08:26:07.457Z,1610
2017-03-31T08:27:07.517Z,1585
2017-03-31T08:28:07.869Z,1620
2017-03-31T08:29:07.622Z,1600
2017-03-31T08:30:07.669Z,1610
2017-03-31T08:31:08.022Z,1615
2017-03-31T08:32:08.075Z,1655
2017-03-31T08:33:07.822Z,1665
2017-03-31T08:34:07.890Z,1675
2017-03-31T08:35:07.940Z,1690
2017-03-31T08:36:07.980Z,1690
2017-03-31T08:37:08.031Z,1680
2017-03-31T08:38:08.081Z,1655
2017-03-31T08:39:08.440Z,1680
2017-03-31T08:40:08.197Z,1680
2017-03-31T08:41:08.248Z,1685
2017-03-31T08:42:08.302Z,1685
2017-03-31T08:43:09.259Z,1690
2017-03-31T08:44:08.411Z,1675
2017-03-31T08:45:08.460Z,1680
2017-03-31T08:46:08.672Z,1690
2017-03-31T08:47:08.569Z,1705
2017-03-31T08:48:08.619Z,1715
2017-03-31T08:49:08.974Z,1715
2017-03-31T08:50:08.733Z,1715
2017-03-31T08:51:09.086Z,1725
2017-03-31T08:52:08.844Z,1680
2017-03-31T08:53:08.886Z,1690
2017-03-31T08:54:09.927Z,1715
2017-03-31T08:55:08.999Z,1715
2017-03-31T08:56:09.376Z,1710
2017-03-31T08:57:09.118Z,1730
2017-03-31T08:58:09.164Z,1755
2017-03-31T08:59:09.214Z,1775
2017-03-31T09:00:09.573Z,1795
2017-03-31T09:01:09.643Z,1795
2017-03-31T09:02:09.383Z,1790
2017-03-31T09:03:09.425Z,1790
2017-03-31T09:04:09.486Z,1805
2017-03-31T09:05:09.893Z,1815
2017-03-31T09:06:09.687Z,1815
2017-03-31T09:07:09.920Z,1810
2017-03-31T09:08:10.007Z,1825
2017-03-31T09:09:10.075Z,1850
2017-03-31T09:10:09.808Z,1865
2017-03-31T09:11:09.867Z,1875
2017-03-31T09:12:09.917Z,1820
2017-03-31T09:13:09.980Z,1780
2017-03-31T09:14:10.030Z,1835
2017-03-31T09:15:10.420Z,1855
2017-03-31T09:16:10.135Z,1850
2017-03-31T09:17:10.502Z,1820
2017-03-31T09:18:10.248Z,1810
2017-03-31T09:19:10.613Z,1790
2017-03-31T09:20:10.366Z,1785
2017-03-31T09:21:10.418Z,1815
2017-03-31T09:22:10.778Z,1815
2017-03-31T09:23:10.826Z,1825
2017-03-31T09:24:10.882Z,1825
2017-03-31T09:25:10.944Z,1840
2017-03-31T09:26:10.993Z,1885
2017-03-31T09:27:11.113Z,1925
2017-03-31T09:28:10.807Z,1950
2017-03-31T09:29:10.857Z,1955
2017-03-31T09:30:11.220Z,1925
2017-03-31T09:31:10.973Z,1875
2017-03-31T09:32:11.040Z,1840
2017-03-31T09:33:11.090Z,1825
2017-03-31T09:34:11.443Z,1810
2017-03-31T09:35:11.212Z,1790
2017-03-31T09:36:11.557Z,1755
2017-03-31T09:37:11.353Z,1730
2017-03-31T09:38:11.361Z,1705
2017-03-31T09:39:12.025Z,1695
2017-03-31T09:40:11.477Z,1685
2017-03-31T09:41:11.836Z,1675
2017-03-31T09:42:11.590Z,1690
2017-03-31T09:43:11.643Z,1745
2017-03-31T09:44:11.722Z,1745
2017-03-31T09:45:12.056Z,1780
2017-03-31T09:46:12.155Z,1780
2017-03-31T09:47:11.869Z,1805
2017-03-31T09:48:11.933Z,1795
2017-03-31T09:49:12.284Z,1800
2017-03-31T09:50:12.339Z,1785
2017-03-31T09:51:12.701Z,1785
2017-03-31T09:52:12.156Z,1770
2017-03-31T09:53:12.506Z,1760
2017-03-31T09:54:12.301Z,1760
2017-03-31T09:55:12.313Z,1750
2017-03-31T09:56:12.683Z,1710
2017-03-31T09:57:12.751Z,1700
2017-03-31T09:58:12.482Z,1700
2017-03-31T09:59:12.542Z,1705
2017-03-31T10:00:12.906Z,1720
2017-03-31T10:01:12.966Z,1715
2017-03-31T10:02:12.710Z,1700
2017-03-31T10:03:13.097Z,1705
2017-03-31T10:04:13.133Z,1695
2017-03-31T10:05:12.902Z,1680
2017-03-31T10:06:12.965Z,1645
2017-03-31T10:07:13.022Z,1665
2017-03-31T10:08:13.088Z,1705
2017-03-31T10:09:13.244Z,1745
2017-03-31T10:10:13.710Z,1790
2017-03-31T10:11:13.262Z,1840
2017-03-31T10:12:13.396Z,1860
2017-03-31T10:13:13.389Z,1895
2017-03-31T10:14:13.759Z,1910
2017-03-31T10:15:13.494Z,1915
2017-03-31T10:16:13.694Z,1925
2017-03-31T10:17:13.612Z,1905
2017-03-31T10:18:13.674Z,1915
2017-03-31T10:19:13.725Z,1925
2017-03-31T10:20:13.771Z,1905
2017-03-31T10:21:13.817Z,1940
2017-03-31T10:22:14.195Z,1930
2017-03-31T10:23:14.253Z,1955
2017-03-31T10:24:14.005Z,1955
2017-03-31T10:25:14.080Z,1950
2017-03-31T10:26:14.407Z,1960
2017-03-31T10:27:14.463Z,1940
2017-03-31T10:28:14.217Z,1955
2017-03-31T10:29:14.284Z,1960
2017-03-31T10:30:14.648Z,1975
2017-03-31T10:31:14.703Z,2005
2017-03-31T10:32:14.460Z,2020
2017-03-31T10:33:14.517Z,2020
2017-03-31T10:34:14.880Z,2010
2017-03-31T10:35:14.941Z,1980
2017-03-31T10:36:14.701Z,1950
2017-03-31T10:37:14.750Z,1905
2017-03-31T10:38:14.813Z,1960
2017-03-31T10:39:14.893Z,1975
2017-03-31T10:40:15.232Z,1980
2017-03-31T10:41:14.995Z,1985
2017-03-31T10:42:15.079Z,1990
2017-03-31T10:43:15.107Z,1965
2017-03-31T10:44:15.158Z,1955
2017-03-31T10:45:15.216Z,1950
2017-03-31T10:46:15.577Z,1945
2017-03-31T10:47:15.339Z,1950
2017-03-31T10:48:15.398Z,1960
2017-03-31T10:49:15.755Z,1995
2017-03-31T10:50:15.515Z,1975
2017-03-31T10:51:16.175Z,1930
2017-03-31T10:52:15.654Z,1905
2017-03-31T10:53:16.008Z,1880
2017-03-31T10:54:15.739Z,1855
2017-03-31T10:55:16.099Z,1870
2017-03-31T10:56:16.176Z,1905
2017-03-31T10:57:15.959Z,1965
2017-03-31T10:58:15.973Z,1970
2017-03-31T10:59:16.040Z,2010
2017-03-31T11:00:16.158Z,2040
2017-03-31T11:01:16.152Z,2040
2017-03-31T11:02:16.516Z,2045
2017-03-31T11:03:16.262Z,2010
2017-03-31T11:04:16.328Z,1945
2017-03-31T11:05:16.714Z,1900
2017-03-31T11:06:16.748Z,1830
2017-03-31T11:07:16.797Z,1765
2017-03-31T11:08:16.551Z,1730
2017-03-31T11:09:16.604Z,1710
2017-03-31T11:10:16.669Z,1710
2017-03-31T11:11:17.471Z,1670
2017-03-31T11:12:16.776Z,1645
2017-03-31T11:13:17.133Z,1605
2017-03-31T11:14:16.890Z,1215
2017-03-31T11:15:16.952Z,520
2017-03-31T11:16:17.008Z,370
2017-03-31T11:17:17.055Z,345
2017-03-31T11:18:17.114Z,330
2017-03-31T11:19:17.173Z,320
2017-03-31T11:20:17.262Z,315
2017-03-31T11:21:17.580Z,305
2017-03-31T11:22:17.631Z,295
2017-03-31T11:23:17.388Z,290
2017-03-31T11:24:17.439Z,285
2017-03-31T11:25:17.489Z,280
2017-03-31T11:26:17.542Z,275
2017-03-31T11:27:17.607Z,270
2017-03-31T11:28:17.681Z,270
2017-03-31T11:29:17.707Z,265
2017-03-31T11:30:17.762Z,265
2017-03-31T11:31:17.806Z,260
2017-03-31T11:32:18.162Z,260
2017-03-31T11:33:17.910Z,255
2017-03-31T11:34:17.965Z,255
2017-03-31T11:35:18.022Z,250
2017-03-31T11:36:18.367Z,250
2017-03-31T11:37:18.454Z,250
2017-03-31T11:38:18.164Z,245
2017-03-31T11:39:18.527Z,245
2017-03-31T11:40:18.273Z,240
2017-03-31T11:41:18.352Z,240
2017-03-31T11:42:18.679Z,240
2017-03-31T11:43:18.733Z,245
2017-03-31T11:44:19.069Z,235
2017-03-31T11:45:18.536Z,235
2017-03-31T11:46:18.582Z,235
2017-03-31T11:47:19.227Z,235
2017-03-31T11:48:18.974Z,235
2017-03-31T11:49:18.716Z,230
2017-03-31T11:50:18.765Z,230
2017-03-31T11:51:18.836Z,230
2017-03-31T11:52:19.189Z,230
2017-03-31T11:53:18.912Z,230
2017-03-31T11:54:19.281Z,230
2017-03-31T11:55:19.022Z,225
2017-03-31T11:56:20.216Z,225
2017-03-31T11:57:20.019Z,225
2017-03-31T11:58:19.468Z,220
2017-03-31T11:59:19.210Z,220
2017-03-31T12:00:19.288Z,215
2017-03-31T12:01:19.615Z,215
2017-03-31T12:02:19.369Z,215
2017-03-31T12:03:19.702Z,215
2017-03-31T12:04:19.450Z,215
2017-03-31T12:05:19.803Z,215
2017-03-31T12:06:19.855Z,215
2017-03-31T12:07:19.585Z,210
2017-03-31T12:08:19.635Z,215
2017-03-31T12:09:20.277Z,205
2017-03-31T12:10:20.115Z,205
2017-03-31T12:11:19.779Z,205
2017-03-31T12:12:19.831Z,200
2017-03-31T12:13:20.183Z,200
2017-03-31T12:14:19.916Z,200
2017-03-31T12:15:20.536Z,195
2017-03-31T12:16:20.020Z,195
2017-03-31T12:17:20.059Z,190
2017-03-31T12:18:20.444Z,190
2017-03-31T12:19:20.157Z,185
2017-03-31T12:20:20.193Z,185
2017-03-31T12:21:20.237Z,185
2017-03-31T12:22:20.590Z,185
2017-03-31T12:23:20.640Z,185
2017-03-31T12:24:20.694Z,185
2017-03-31T12:25:20.434Z,185
2017-03-31T12:26:20.785Z,185
2017-03-31T12:27:20.515Z,185
2017-03-31T12:28:20.572Z,180
2017-03-31T12:29:20.624Z,180
2017-03-31T12:30:20.658Z,180
2017-03-31T12:31:21.009Z,175
2017-03-31T12:32:20.751Z,175
2017-03-31T12:33:21.098Z,170
2017-03-31T12:34:20.840Z,170
2017-03-31T12:35:20.884Z,170
2017-03-31T12:36:20.939Z,170
2017-03-31T12:37:21.592Z,170
2017-03-31T12:38:21.326Z,165
2017-03-31T12:39:21.066Z,165
2017-03-31T12:40:21.417Z,165
2017-03-31T12:41:21.465Z,165
2017-03-31T12:42:21.213Z,165
2017-03-31T12:43:21.556Z,165
2017-03-31T12:44:21.301Z,165
2017-03-31T12:45:21.647Z,165
2017-03-31T12:46:21.697Z,165
2017-03-31T12:47:21.440Z,165
2017-03-31T12:48:21.481Z,165
2017-03-31T12:49:21.532Z,165
2017-03-31T12:50:22.199Z,165
2017-03-31T12:51:21.619Z,165
2017-03-31T12:52:21.969Z,165
2017-03-31T12:53:21.712Z,165
2017-03-31T12:54:21.759Z,165
2017-03-31T12:55:22.110Z,160
2017-03-31T12:56:21.896Z,160
2017-03-31T12:57:21.896Z,160
2017-03-31T12:58:21.932Z,160
2017-03-31T12:59:21.987Z,160
2017-03-31T13:00:22.328Z,160
2017-03-31T13:01:22.302Z,160
2017-03-31T13:02:22.118Z,160
2017-03-31T13:03:22.171Z,160
2017-03-31T13:04:22.204Z,160
2017-03-31T13:05:22.565Z,160
2017-03-31T13:06:22.635Z,160
2017-03-31T13:07:22.648Z,160
2017-03-31T13:08:22.696Z,160
2017-03-31T13:09:22.439Z,160
2017-03-31T13:10:22.550Z,155
2017-03-31T13:11:22.831Z,155
2017-03-31T13:12:23.205Z,155
2017-03-31T13:13:22.616Z,155
2017-03-31T13:14:22.661Z,155
2017-03-31T13:15:23.029Z,155
2017-03-31T13:16:22.760Z,155
2017-03-31T13:17:23.105Z,155
2017-03-31T13:18:22.851Z,155
2017-03-31T13:19:22.884Z,155
2017-03-31T13:20:23.238Z,155
2017-03-31T13:21:23.279Z,155
2017-03-31T13:22:23.034Z,155
2017-03-31T13:23:23.071Z,155
2017-03-31T13:24:23.112Z,155
2017-03-31T13:25:23.467Z,155
2017-03-31T13:26:23.209Z,155
2017-03-31T13:27:23.250Z,155
2017-03-31T13:28:23.298Z,150
2017-03-31T13:29:23.343Z,150
2017-03-31T13:30:23.398Z,150
2017-03-31T13:31:23.443Z,150
2017-03-31T13:32:23.476Z,150
2017-03-31T13:33:23.530Z,150
2017-03-31T13:34:23.567Z,145
2017-03-31T13:35:23.914Z,145
2017-03-31T13:36:23.654Z,145
2017-03-31T13:37:24.004Z,145
2017-03-31T13:38:23.752Z,145
2017-03-31T13:39:23.794Z,145
2017-03-31T13:40:23.840Z,145
2017-03-31T13:41:24.198Z,140
2017-03-31T13:42:23.930Z,140
2017-03-31T13:43:24.277Z,140
2017-03-31T13:44:24.022Z,140
2017-03-31T13:45:24.065Z,140
2017-03-31T13:46:24.115Z,140
2017-03-31T13:47:24.156Z,140
2017-03-31T13:48:24.215Z,140
2017-03-31T13:49:24.251Z,140
2017-03-31T13:50:24.285Z,140
2017-03-31T13:51:24.343Z,140
2017-03-31T13:52:24.375Z,135
2017-03-31T13:53:24.725Z,135
2017-03-31T13:54:24.769Z,135
2017-03-31T13:55:24.513Z,135
2017-03-31T13:56:24.885Z,135
2017-03-31T13:57:24.607Z,135
2017-03-31T13:58:24.645Z,135
2017-03-31T13:59:24.698Z,130
2017-03-31T14:00:24.734Z,130